Time;durP1;ratioP1;P1;durP2;ratioP2;P2;SDS_P1;SDS_P2;PMS_P1;PMS_P2;Temp;Humidity;BMP_temperature;BMP_pressure;BME280_temperature;BME280_humidity;BME280_pressure;Samples;Min_cycle;Max_cycle;Signal;HPM_P1;HPM_P2
2022/12/17 13:06:47;;;;;;;28.98;21.55;;;;;;;9.74;72.82;101516.72;5002658;28;20064;-82
2022/12/17 13:09:20;;;;;;;36.17;22.92;;;;;;;8.48;72.93;101319.72;4985561;28;20412;-83
2022/12/17 13:11:59;;;;;;;32.28;22.95;;;;;;;9.73;73.61;101526.44;4983617;28;20045;-82
2022/12/17 13:14:30;;;;;;;33.97;24.38;;;;;;;8.83;72.52;101381.75;4984155;28;20065;-82
2022/12/17 13:17:05;;;;;;;27.92;21.45;;;;;;;9.20;73.50;101428.56;4985425;28;20053;-79
2022/12/17 13:19:46;;;;;;;32.90;22.75;;;;;;;9.16;73.58;101444.78;4982807;28;20411;-82
2022/12/17 13:22:18;;;;;;;32.92;24.30;;;;;;;9.71;73.28;101532.81;4978986;28;20045;-82
2022/12/17 13:24:55;;;;;;;30.52;23.55;;;;;;;8.56;73.71;101358.88;4999953;28;20384;-80
2022/12/17 13:27:34;;;;;;;33.25;23.63;;;;;;;9.70;74.76;101536.44;4981858;28;20076;-79
2022/12/17 13:30:16;;;;;;;27.48;23.10;;;;;;;9.69;74.46;101538.25;4997851;28;20049;-79
2022/12/17 13:32:46;;;;;;;;;;;;;;;9.70;73.69;101539.09;4997531;28;20049;-79
2022/12/17 13:35:51;;;;;;;32.53;24.15;;;;;;;9.38;73.62;101487.38;4983597;28;19925;-81
2022/12/17 13:38:44;;;;;;;29.58;23.92;;;;;;;9.22;73.88;101467.34;4949202;28;20129;-81
2022/12/17 13:41:19;;;;;;;33.70;25.33;;;;;;;9.82;73.32;101564.75;4973049;28;20155;-81
2022/12/17 13:44:02;;;;;;;32.70;24.75;;;;;;;9.80;73.58;101569.31;4978712;28;20166;-81
2022/12/17 13:46:41;;;;;;;32.05;25.40;;;;;;;9.29;73.64;101495.13;4985974;28;20581;-81
2022/12/17 13:49:23;;;;;;;34.28;24.92;;;;;;;9.11;72.57;101457.50;4982099;28;20236;-82
2022/12/17 13:52:20;;;;;;;33.05;24.70;;;;;;;9.78;72.28;101566.78;4973942;28;20065;-82
2022/12/17 13:54:47;;;;;;;31.00;23.67;;;;;;;9.62;73.63;101566.97;4982529;28;20131;-79
2022/12/17 13:57:18;;;;;;;35.78;26.10;;;;;;;9.70;73.56;101581.50;4985733;28;20046;-81
2022/12/17 13:59:56;;;;;;;34.97;26.70;;;;;;;9.69;74.36;101582.47;4984184;28;20519;-81
2022/12/17 14:02:31;;;;;;;33.70;24.48;;;;;;;9.22;72.77;101488.53;4997310;28;20060;-80
2022/12/17 14:05:00;;;;;;;34.33;25.85;;;;;;;8.88;73.35;101457.25;4982135;28;20054;-81
2022/12/17 14:07:37;;;;;;;36.47;27.80;;;;;;;9.60;73.65;101578.66;4983815;28;20081;-82
2022/12/17 14:10:18;;;;;;;36.75;25.75;;;;;;;9.69;73.04;101587.78;4982853;28;20061;-82
2022/12/17 14:12:46;;;;;;;36.47;26.40;;;;;;;9.65;74.01;101581.00;4982647;28;20119;-81
2022/12/17 14:15:23;;;;;;;33.75;26.45;;;;;;;9.18;73.59;101514.41;4981954;28;20052;-81
2022/12/17 14:17:51;;;;;;;40.88;28.20;;;;;;;9.67;74.03;101597.66;4981751;28;20505;-83
2022/12/17 14:20:36;;;;;;;40.22;27.52;;;;;;;9.66;74.26;101598.59;4981703;28;20057;-82
2022/12/17 14:23:20;;;;;;;36.42;28.58;;;;;;;9.61;74.31;101604.19;4962197;28;20050;-81
2022/12/17 14:25:55;;;;;;;36.20;27.35;;;;;;;9.46;73.98;101581.41;4996172;28;20085;-82
2022/12/17 14:28:36;;;;;;;39.22;28.15;;;;;;;9.20;74.65;101539.00;5019747;28;20578;-82
2022/12/17 14:31:08;;;;;;;38.75;28.38;;;;;;;9.63;74.80;101611.09;5001658;28;20174;-80
2022/12/17 14:34:06;;;;;;;36.08;28.17;;;;;;;9.59;74.76;101603.47;4964935;28;20057;-82
2022/12/17 14:36:36;;;;;;;36.92;29.05;;;;;;;9.40;75.17;101572.09;4963911;28;20085;-83
2022/12/17 14:39:15;;;;;;;42.20;29.38;;;;;;;9.45;76.47;101585.88;4977870;28;20370;-81
2022/12/17 14:44:29;;;;;;;37.20;29.67;;;;;;;8.46;75.20;101422.16;4989838;28;20061;-83
2022/12/17 14:47:21;;;;;;;40.17;29.83;;;;;;;8.33;75.16;101405.38;4983162;28;20056;-82
2022/12/17 14:50:04;;;;;;;38.47;28.67;;;;;;;9.13;75.53;101548.31;4981954;28;20087;-83
2022/12/17 14:52:43;;;;;;;42.28;30.48;;;;;;;9.62;75.68;101616.50;4978955;28;20056;-81
2022/12/17 14:55:30;;;;;;;41.03;29.63;;;;;;;9.67;76.94;101621.50;4987418;28;20444;-83
2022/12/17 14:58:06;;;;;;;44.90;29.42;;;;;;;9.63;76.29;101627.00;4988322;28;20198;-80
2022/12/17 15:00:49;;;;;;;40.60;29.75;;;;;;;9.50;76.21;101622.66;5000789;28;20516;-81
2022/12/17 15:03:16;;;;;;;42.50;30.08;;;;;;;9.18;76.13;101568.25;4981592;28;20061;-81
2022/12/17 15:05:50;;;;;;;41.67;30.00;;;;;;;9.48;75.95;101622.75;4981907;28;20159;-79
2022/12/17 15:08:19;;;;;;;38.22;30.63;;;;;;;9.65;75.60;101644.63;4980582;28;20049;-81
2022/12/17 15:10:46;;;;;;;43.80;31.42;;;;;;;9.36;75.75;101610.34;4982397;28;20297;-80
2022/12/17 15:13:15;;;;;;;38.65;29.90;;;;;;;9.44;75.40;101626.56;4979342;28;20632;-82
2022/12/17 15:15:44;;;;;;;41.03;30.40;;;;;;;9.61;76.30;101666.03;4981553;28;20668;-83
2022/12/17 15:18:11;;;;;;;43.13;30.70;;;;;;;8.24;75.79;101441.22;4979101;28;20546;-81
2022/12/17 15:20:39;;;;;;;42.22;32.40;;;;;;;9.40;76.32;101630.38;4980578;28;20054;-82
2022/12/17 15:23:13;;;;;;;45.45;33.40;;;;;;;9.12;76.02;101592.47;4997686;28;20052;-80
2022/12/17 15:25:49;;;;;;;50.63;35.45;;;;;;;9.53;76.43;101672.81;4979339;28;20221;-81
2022/12/17 15:28:19;;;;;;;54.50;36.25;;;;;;;9.09;76.39;101613.88;4997608;28;20076;-80
2022/12/17 15:30:54;;;;;;;54.75;37.65;;;;;;;9.50;76.24;101697.72;4978986;28;20156;-80
2022/12/17 15:33:20;;;;;;;52.13;36.83;;;;;;;9.44;76.58;101694.63;4998525;28;20045;-80
2022/12/17 15:35:47;;;;;;;52.80;37.83;;;;;;;9.41;76.81;101698.34;4982869;28;20053;-79
2022/12/17 15:38:18;;;;;;;49.45;38.17;;;;;;;9.39;76.92;101702.88;4980199;28;20559;-81
2022/12/17 15:40:45;;;;;;;57.35;39.47;;;;;;;9.42;77.13;101702.69;4980642;28;20388;-81
2022/12/17 15:43:12;;;;;;;56.53;39.22;;;;;;;9.29;77.29;101688.53;4980222;28;20045;-80
2022/12/17 15:45:44;;;;;;;59.92;38.88;;;;;;;9.12;77.24;101671.94;4980609;28;20049;-80
2022/12/17 15:48:13;;;;;;;60.03;40.67;;;;;;;9.40;77.08;101725.78;4976510;28;20049;-81
2022/12/17 15:50:43;;;;;;;52.28;38.63;;;;;;;9.32;77.05;101712.19;4997450;28;20053;-80
2022/12/17 15:53:17;;;;;;;51.88;39.17;;;;;;;9.37;76.77;101716.25;4980582;28;20049;-80
2022/12/17 15:55:44;;;;;;;57.25;39.42;;;;;;;9.11;77.32;101682.66;4979109;28;20052;-81
2022/12/17 15:58:13;;;;;;;57.78;40.42;;;;;;;9.23;77.78;101703.06;4979388;28;20068;-82
2022/12/17 16:00:41;;;;;;;57.05;39.92;;;;;;;8.76;77.80;101636.34;4980888;28;20053;-82
2022/12/17 16:03:07;;;;;;;60.10;43.60;;;;;;;8.84;77.93;101650.91;4971104;28;20062;-82
2022/12/17 16:05:34;;;;;;;62.08;43.00;;;;;;;9.31;77.97;101743.13;4960572;28;20054;-82
2022/12/17 16:08:02;;;;;;;63.08;44.22;;;;;;;8.74;76.62;101648.84;4960623;28;20264;-81
2022/12/17 16:10:30;;;;;;;63.53;43.45;;;;;;;9.17;77.44;101728.16;4975169;28;20133;-81
2022/12/17 16:12:57;;;;;;;58.88;40.85;;;;;;;8.91;77.43;101702.50;4958550;28;20058;-82
2022/12/17 16:15:25;;;;;;;63.22;43.95;;;;;;;7.96;77.09;101542.66;4958231;28;20356;-80
2022/12/17 16:17:52;;;;;;;63.08;43.08;;;;;;;8.81;77.40;101689.00;4961900;28;20046;-82
2022/12/17 16:20:25;;;;;;;64.45;41.55;;;;;;;8.69;77.07;101661.53;4964761;28;20240;-81
2022/12/17 16:22:54;;;;;;;61.67;44.60;;;;;;;9.34;78.12;101776.53;4967533;28;20066;-81
2022/12/17 16:25:22;;;;;;;60.35;43.95;;;;;;;9.24;77.77;101763.03;4984810;28;20373;-83
2022/12/17 16:27:50;;;;;;;62.42;42.63;;;;;;;9.21;78.03;101757.94;4979344;28;20519;-81
2022/12/17 16:30:17;;;;;;;61.65;44.53;;;;;;;9.34;77.32;101785.34;4976655;28;20092;-81
2022/12/17 16:32:48;;;;;;;63.38;44.38;;;;;;;8.80;76.88;101697.03;4961542;28;20054;-82
2022/12/17 16:35:20;;;;;;;59.05;43.45;;;;;;;9.29;76.99;101781.28;4973631;28;20242;-82
2022/12/17 16:37:47;;;;;;;;;;;;;;;9.29;77.99;101781.28;4977738;28;20259;-82
2022/12/17 16:40:14;;;;;;;57.67;42.83;;;;;;;8.35;77.00;101634.53;4979332;28;19948;-82
2022/12/17 16:42:43;;;;;;;64.28;44.38;;;;;;;9.34;77.10;101790.63;4980433;28;20054;-80
2022/12/17 16:45:21;;;;;;;60.63;44.42;;;;;;;8.75;77.44;101700.81;4953538;28;20492;-81
2022/12/17 16:48:07;;;;;;;67.47;45.70;;;;;;;9.32;76.93;101799.63;4935269;28;20055;-81
2022/12/17 16:50:34;;;;;;;62.00;44.95;;;;;;;9.02;76.78;101742.38;4939725;28;20229;-82
2022/12/17 16:53:03;;;;;;;61.33;44.72;;;;;;;9.19;76.40;101792.47;4940125;28;20583;-80
2022/12/17 16:55:32;;;;;;;64.15;45.05;;;;;;;9.26;77.57;101808.00;4939287;28;20478;-81
2022/12/17 16:58:25;;;;;;;66.68;45.58;;;;;;;7.93;77.81;101598.38;4941413;28;20057;-81
2022/12/17 17:03:33;;;;;;;66.18;45.17;;;;;;;9.27;77.81;101836.19;5009361;23;20080;-80
2022/12/17 17:06:03;;;;;;;66.20;46.08;;;;;;;9.10;77.95;101814.28;4940093;28;20062;-83
2022/12/17 17:08:30;;;;;;;66.38;46.05;;;;;;;9.15;77.63;101822.78;4958788;28;20065;-81
2022/12/17 17:11:09;;;;;;;67.63;48.25;;;;;;;8.91;77.72;101787.25;4952004;28;20054;-82
2022/12/17 17:13:38;;;;;;;67.03;45.90;;;;;;;9.06;77.69;101818.06;4964120;28;20361;-80
2022/12/17 17:16:07;;;;;;;69.05;48.10;;;;;;;9.24;78.02;101852.28;4962868;28;20116;-82
2022/12/17 17:18:34;;;;;;;66.97;48.58;;;;;;;8.33;77.87;101713.13;4944742;28;20801;-81
2022/12/17 17:21:19;;;;;;;72.07;48.58;;;;;;;9.22;77.47;101864.78;4944910;28;20054;-79
2022/12/17 17:23:49;;;;;;;69.25;47.50;;;;;;;9.01;78.15;101830.75;4944259;28;20062;-81
2022/12/17 17:26:19;;;;;;;70.90;50.80;;;;;;;8.91;77.61;101811.09;4942852;28;20444;-81
2022/12/17 17:28:47;;;;;;;63.83;46.95;;;;;;;8.99;77.84;101837.94;4943522;28;20142;-82
2022/12/17 17:31:18;;;;;;;66.85;47.50;;;;;;;8.80;77.59;101810.91;4945553;28;20153;-81
2022/12/17 17:33:56;;;;;;;;;;;;;;;9.17;78.86;101879.19;4967936;28;20147;-82
2022/12/17 17:36:26;;;;;;;72.82;48.15;;;;;;;9.16;78.33;101872.16;4961753;28;20043;-82
2022/12/17 17:38:54;;;;;;;63.80;47.92;;;;;;;8.58;78.40;101779.63;4958481;28;20550;-82
2022/12/17 17:41:26;;;;;;;70.13;50.30;;;;;;;8.69;79.06;101804.47;4959273;28;20734;-82
2022/12/17 17:44:06;;;;;;;72.82;50.47;;;;;;;8.17;78.15;101715.00;4954501;28;20417;-82
2022/12/17 17:46:34;;;;;;;72.85;50.67;;;;;;;9.25;78.70;101897.25;4968240;28;20157;-82
2022/12/17 17:49:04;;;;;;;72.97;49.83;;;;;;;9.22;78.61;101905.38;4947463;28;20117;-82
2022/12/17 17:51:37;;;;;;;70.53;50.13;;;;;;;9.20;78.25;101910.78;4968443;28;20387;-79
2022/12/17 17:54:25;;;;;;;63.20;46.67;;;;;;;9.07;78.20;101885.13;4967226;28;20046;-82
2022/12/17 17:56:52;;;;;;;66.93;47.95;;;;;;;9.17;78.60;101913.63;4971466;28;20057;-81
2022/12/17 17:59:19;;;;;;;65.80;48.03;;;;;;;9.23;78.13;101928.28;4971392;28;20052;-82
2022/12/17 18:01:48;;;;;;;72.40;49.25;;;;;;;9.29;78.30;101935.00;4978563;28;20479;-83
2022/12/17 18:04:19;;;;;;;79.82;49.80;;;;;;;8.54;78.44;101819.50;4981251;28;20060;-81
2022/12/17 18:06:53;;;;;;;63.55;47.00;;;;;;;9.21;78.93;101938.13;4947547;28;20664;-80
2022/12/17 18:09:40;;;;;;;71.60;49.55;;;;;;;9.17;79.27;101937.47;4949766;28;20057;-82
2022/12/17 18:14:57;;;;;;;72.20;48.40;;;;;;;9.24;78.60;101953.81;4965330;28;20346;-80
2022/12/17 18:17:39;;;;;;;75.90;50.83;;;;;;;9.17;78.36;101949.84;4962852;28;20054;-81
2022/12/17 18:20:09;;;;;;;67.57;48.20;;;;;;;9.20;78.40;101933.78;4963183;28;20402;-81
2022/12/17 18:22:36;;;;;;;66.28;46.53;;;;;;;9.34;77.99;101964.72;4960289;28;20144;-82
2022/12/17 18:25:04;;;;;;;71.53;48.63;;;;;;;9.24;78.63;101947.69;4961289;28;20081;-81
2022/12/17 18:27:31;;;;;;;77.38;49.63;;;;;;;9.31;79.84;101970.19;4957811;28;20551;-82
2022/12/17 18:29:58;;;;;;;82.00;51.88;;;;;;;9.27;79.26;101968.69;4953084;28;20503;-83
2022/12/17 18:32:28;;;;;;;68.50;48.35;;;;;;;9.15;79.82;101963.22;4959660;28;20051;-82
2022/12/17 18:34:54;;;;;;;78.75;52.92;;;;;;;9.21;79.95;101975.22;4946268;28;20062;-81
2022/12/17 18:37:21;;;;;;;76.97;50.83;;;;;;;9.19;79.44;101970.00;4941571;28;20050;-81
2022/12/17 18:39:48;;;;;;;74.22;50.83;;;;;;;8.74;80.50;101904.81;4945442;28;20412;-79
2022/12/17 18:45:03;;;;;;;77.32;50.47;;;;;;;9.17;80.88;101990.47;4980874;28;20127;-79
2022/12/17 18:47:33;;;;;;;81.07;51.30;;;;;;;8.96;81.19;101965.28;4966176;28;20057;-79
2022/12/17 18:50:04;;;;;;;75.45;49.72;;;;;;;9.15;81.69;101996.78;4965895;28;20084;-79
2022/12/17 18:52:31;;;;;;;78.38;48.88;;;;;;;9.13;81.92;102004.00;4983105;28;20414;-79
2022/12/17 18:54:58;;;;;;;76.90;50.30;;;;;;;8.59;82.54;101921.59;4965470;28;20052;-85
2022/12/17 18:57:25;;;;;;;79.53;52.70;;;;;;;9.09;82.45;102013.91;4958752;28;20049;-86
2022/12/17 18:59:53;;;;;;;82.70;52.47;;;;;;;8.58;82.92;101935.78;4965894;28;20097;-85
2022/12/17 19:02:20;;;;;;;81.15;50.75;;;;;;;8.81;83.26;101968.81;4934422;28;20222;-85
2022/12/17 19:04:49;;;;;;;77.25;51.13;;;;;;;9.05;82.46;102007.06;4957002;28;20397;-85
2022/12/17 19:07:19;;;;;;;80.20;51.10;;;;;;;8.17;82.10;101867.59;4945080;28;20462;-85
2022/12/17 19:09:48;;;;;;;81.13;51.50;;;;;;;8.65;81.33;101956.50;4947155;28;20058;-85
2022/12/17 19:12:15;;;;;;;76.55;50.15;;;;;;;8.89;81.09;101998.38;4947789;28;20359;-84
2022/12/17 19:14:42;;;;;;;76.43;51.72;;;;;;;9.12;81.02;102032.25;4946980;28;20408;-84
2022/12/17 19:17:09;;;;;;;78.07;50.38;;;;;;;9.05;80.85;102022.13;4950014;28;20148;-82
2022/12/17 19:19:36;;;;;;;72.47;49.78;;;;;;;9.16;80.73;102043.53;4967595;28;20695;-84
2022/12/17 19:22:04;;;;;;;75.05;50.15;;;;;;;8.82;81.43;101999.66;4948745;28;20128;-83
2022/12/17 19:24:32;;;;;;;80.95;51.50;;;;;;;8.82;81.67;102002.31;4965211;28;20074;-85
2022/12/17 19:26:59;;;;;;;76.45;49.75;;;;;;;8.91;82.06;102026.47;4949554;28;20160;-84
2022/12/17 19:29:25;;;;;;;80.82;50.22;;;;;;;8.79;81.86;102000.72;4948596;28;20058;-84
2022/12/17 19:31:52;;;;;;;83.82;50.58;;;;;;;8.96;81.61;102040.28;4951895;28;20056;-82
2022/12/17 19:34:24;;;;;;;76.57;51.00;;;;;;;8.84;81.72;102013.69;4950667;28;20061;-86
2022/12/17 19:36:51;;;;;;;79.80;49.65;;;;;;;8.65;81.37;101982.13;4961947;28;20077;-85
2022/12/17 19:39:20;;;;;;;79.53;48.40;;;;;;;8.93;81.72;102039.59;4948833;28;20054;-83
2022/12/17 19:41:49;;;;;;;78.60;49.30;;;;;;;9.15;80.99;102079.78;4964911;28;20058;-85
2022/12/17 19:44:19;;;;;;;88.45;51.40;;;;;;;9.08;81.62;102062.53;4948684;28;20539;-83
2022/12/17 19:46:46;;;;;;;79.75;49.38;;;;;;;9.04;81.22;102052.22;4966781;28;20664;-83
2022/12/17 19:49:19;;;;;;;89.57;51.00;;;;;;;8.49;81.05;101974.22;4967443;28;20050;-83
2022/12/17 19:51:50;;;;;;;79.68;48.75;;;;;;;8.65;81.32;102009.44;4936551;28;20625;-86
2022/12/17 19:54:18;;;;;;;82.53;49.47;;;;;;;8.61;81.61;102002.63;4948505;28;20054;-84
2022/12/17 19:56:45;;;;;;;79.32;48.67;;;;;;;8.14;80.84;101932.09;4965284;28;20054;-82
2022/12/17 19:59:12;;;;;;;83.38;53.20;;;;;;;8.87;80.89;102055.84;4948363;28;20054;-81
2022/12/17 20:01:45;;;;;;;80.35;49.70;;;;;;;9.17;81.65;102100.88;4948793;28;20639;-83
2022/12/17 20:04:16;;;;;;;81.60;50.38;;;;;;;8.89;81.36;102059.28;4967613;28;20058;-84
2022/12/17 20:06:47;;;;;;;86.65;48.92;;;;;;;9.07;81.54;102089.97;4967840;28;20574;-82
2022/12/17 20:09:16;;;;;;;76.32;50.05;;;;;;;9.01;81.86;102085.03;4944567;28;20058;-84
2022/12/17 20:11:45;;;;;;;78.05;49.97;;;;;;;8.96;81.70;102072.06;4964847;28;20081;-82
2022/12/17 20:14:19;;;;;;;86.18;50.28;;;;;;;9.07;81.43;102092.63;4945948;28;20050;-82
2022/12/17 20:16:49;;;;;;;78.35;51.40;;;;;;;8.83;81.91;102054.31;4944068;28;20515;-83
2022/12/17 20:19:18;;;;;;;79.00;51.45;;;;;;;9.06;81.95;102093.56;4928263;28;20757;-83
2022/12/17 20:21:49;;;;;;;81.25;50.63;;;;;;;8.63;81.30;102031.66;4943735;28;20177;-83
2022/12/17 20:24:17;;;;;;;81.30;51.40;;;;;;;8.66;81.41;102032.31;4940105;28;20154;-80
2022/12/17 20:26:44;;;;;;;89.18;52.40;;;;;;;8.73;82.13;102054.84;4939825;28;20142;-77
2022/12/17 20:29:13;;;;;;;75.55;50.38;;;;;;;8.42;82.49;101996.69;4941815;28;20113;-79
2022/12/17 20:31:41;;;;;;;80.95;49.83;;;;;;;7.92;82.46;101920.09;4945536;28;20472;-77
2022/12/17 20:34:16;;;;;;;80.00;50.25;;;;;;;9.17;82.44;102144.16;4944740;28;20342;-79
2022/12/17 20:36:51;;;;;;;83.05;51.33;;;;;;;9.02;82.87;102118.53;4945261;28;20165;-79
2022/12/17 20:39:18;;;;;;;79.50;50.33;;;;;;;8.92;83.19;102112.06;4949328;28;20457;-78
2022/12/17 20:41:59;;;;;;;87.57;50.40;;;;;;;9.15;82.95;102146.03;4945816;28;20533;-78
2022/12/17 20:44:32;;;;;;;81.97;52.20;;;;;;;9.08;83.28;102128.78;4954496;28;20054;-78
2022/12/17 20:47:05;;;;;;;81.60;50.45;;;;;;;8.31;82.54;102015.81;4965182;28;20113;-81
2022/12/17 20:49:31;;;;;;;72.82;50.03;;;;;;;8.88;82.69;102105.22;4944416;28;20043;-78
2022/12/17 20:52:02;;;;;;;79.88;49.80;;;;;;;9.19;83.01;102150.19;4947016;28;20070;-78
2022/12/17 20:54:30;;;;;;;79.47;48.90;;;;;;;9.20;82.93;102159.84;4963206;28;20066;-78
2022/12/17 20:57:01;;;;;;;79.63;48.42;;;;;;;9.06;83.28;102141.25;4946085;28;20089;-79
2022/12/17 20:59:28;;;;;;;72.55;47.60;;;;;;;9.18;83.38;102171.50;4962549;28;20252;-78
2022/12/17 21:01:55;;;;;;;71.35;44.53;;;;;;;8.92;83.15;102131.44;4948252;28;20062;-79
2022/12/17 21:04:22;;;;;;;71.57;44.65;;;;;;;8.73;82.90;102107.81;4961096;28;20054;-78
2022/12/17 21:06:49;;;;;;;78.35;48.20;;;;;;;8.24;83.04;102036.47;4961327;28;20891;-79
2022/12/17 21:09:24;;;;;;;80.32;50.15;;;;;;;8.78;83.53;102126.94;4958559;28;20469;-80
2022/12/17 21:11:51;;;;;;;77.00;49.15;;;;;;;8.95;84.12;102164.84;4962258;28;20050;-79
2022/12/17 21:14:29;;;;;;;83.25;51.10;;;;;;;8.88;84.51;102159.03;4959451;28;20203;-79
2022/12/17 21:17:04;;;;;;;79.15;49.45;;;;;;;8.85;84.34;102155.72;4959096;28;20442;-78
2022/12/17 21:19:31;;;;;;;87.10;51.85;;;;;;;9.05;84.36;102192.50;4944736;28;20841;-80
2022/12/17 21:21:58;;;;;;;84.13;49.63;;;;;;;9.02;84.73;102183.91;4950041;28;20065;-79
2022/12/17 21:24:25;;;;;;;80.65;49.00;;;;;;;8.93;85.09;102185.28;4947207;28;20154;-79
2022/12/17 21:26:55;;;;;;;93.32;50.80;;;;;;;8.87;85.56;102167.09;4946703;28;20058;-80
2022/12/17 21:29:22;;;;;;;87.43;52.80;;;;;;;9.04;84.68;102206.72;4947578;28;20046;-79
2022/12/17 21:31:52;;;;;;;104.63;57.65;;;;;;;8.99;84.87;102203.47;4947671;28;20066;-79
2022/12/17 21:34:21;;;;;;;109.43;60.35;;;;;;;8.92;84.42;102196.81;4945096;28;20057;-79
2022/12/17 21:36:50;;;;;;;106.65;62.28;;;;;;;9.03;84.46;102215.63;4943867;28;20174;-78
2022/12/17 21:39:19;;;;;;;114.20;63.40;;;;;;;9.02;84.92;102218.34;4949241;28;20058;-80
2022/12/17 21:44:37;;;;;;;112.97;63.17;;;;;;;9.01;84.38;102227.25;4975499;28;20093;-80
2022/12/17 21:47:04;;;;;;;113.97;63.60;;;;;;;9.02;84.15;102234.22;4969413;28;20054;-79
2022/12/17 21:49:31;;;;;;;105.30;59.33;;;;;;;8.86;84.69;102218.34;4965331;28;20090;-80
2022/12/17 21:51:58;;;;;;;105.10;62.28;;;;;;;8.85;84.49;102220.13;4966642;28;20057;-78
2022/12/17 21:54:25;;;;;;;91.00;50.50;;;;;;;9.01;83.50;102249.28;4967665;28;20184;-79
2022/12/17 21:56:53;;;;;;;87.38;51.33;;;;;;;8.96;83.52;102243.38;4956620;28;20058;-80
2022/12/17 21:59:21;;;;;;;98.82;53.88;;;;;;;8.92;82.93;102252.44;4960503;28;20218;-79
2022/12/17 22:01:49;;;;;;;95.00;55.65;;;;;;;8.81;83.72;102242.44;4952797;28;20148;-79
2022/12/17 22:04:16;;;;;;;83.50;50.67;;;;;;;8.91;82.92;102256.03;4968318;28;20164;-79
2022/12/17 22:06:50;;;;;;;91.75;51.80;;;;;;;8.82;83.01;102256.53;4951705;28;20528;-79
2022/12/17 22:09:31;;;;;;;74.07;47.00;;;;;;;8.88;83.02;102269.44;4980459;28;20042;-79
2022/12/17 22:15:09;;;;;;;37.25;23.13;;;;;;;8.67;78.90;102251.16;4987361;28;20219;-79
2022/12/17 22:17:41;;;;;;;29.38;19.48;;;;;;;8.73;77.43;102271.97;4985928;28;20081;-78
2022/12/17 22:20:08;;;;;;;28.95;19.38;;;;;;;8.76;76.80;102277.13;4955372;28;20170;-78
2022/12/17 22:22:36;;;;;;;29.98;18.48;;;;;;;8.77;76.38;102280.63;4957056;28;20136;-79
2022/12/17 22:25:08;;;;;;;34.35;20.58;;;;;;;8.68;76.78;102263.44;4948386;28;20061;-80
2022/12/17 22:27:41;;;;;;;41.65;25.48;;;;;;;7.52;76.82;102071.25;4950215;28;20607;-80
2022/12/17 22:33:01;;;;;;;47.23;27.87;;;;;;;8.83;79.22;102290.03;4967203;28;20080;-78
2022/12/17 22:35:41;;;;;;;43.67;28.17;;;;;;;8.85;78.34;102285.50;4949847;28;20661;-80
2022/12/17 22:38:33;;;;;;;;;;;;;;;8.79;78.88;102294.63;4951435;28;20077;-81
2022/12/17 22:44:27;;;;;;;50.80;26.58;;;;;;;8.77;79.42;102301.81;4971538;28;20215;-79
2022/12/17 22:47:13;;;;;;;41.83;25.48;;;;;;;8.61;79.04;102272.63;4966580;28;20141;-78
2022/12/17 22:49:40;;;;;;;31.63;19.85;;;;;;;8.76;77.05;102303.59;4945310;28;20558;-78
2022/12/17 22:52:09;;;;;;;26.33;17.13;;;;;;;8.76;76.36;102292.13;4945086;28;20822;-79
2022/12/17 22:54:36;;;;;;;32.13;17.83;;;;;;;7.73;74.87;102136.22;4946641;28;20472;-78
2022/12/17 22:57:08;;;;;;;30.40;19.25;;;;;;;8.70;75.55;102292.47;4946193;28;20046;-78
2022/12/17 22:59:58;;;;;;;28.02;18.52;;;;;;;8.66;76.02;102299.72;4949086;28;20547;-79
2022/12/17 23:02:25;;;;;;;29.85;14.65;;;;;;;8.71;74.98;102316.25;4945895;28;20284;-79
2022/12/17 23:04:52;;;;;;;18.30;14.45;;;;;;;8.25;73.74;102243.66;4945080;28;20304;-79
2022/12/17 23:07:19;;;;;;;21.33;14.38;;;;;;;8.52;73.86;102284.59;4943888;28;20050;-79
2022/12/17 23:09:46;;;;;;;23.95;14.98;;;;;;;8.60;73.34;102302.72;4947527;28;20180;-79
2022/12/17 23:14:59;;;;;;;26.30;16.20;;;;;;;8.53;74.91;102310.13;4965048;28;20046;-79
2022/12/17 23:17:28;;;;;;;22.90;16.15;;;;;;;8.60;73.89;102310.66;4947319;28;20149;-78
2022/12/17 23:19:54;;;;;;;23.02;14.68;;;;;;;8.66;74.26;102331.50;4928083;28;20528;-78
2022/12/17 23:22:21;;;;;;;24.05;15.27;;;;;;;8.71;74.11;102329.47;4944906;28;20560;-79
2022/12/17 23:24:48;;;;;;;21.92;14.48;;;;;;;8.67;73.45;102341.16;4944831;28;20678;-79
2022/12/17 23:27:14;;;;;;;20.83;14.50;;;;;;;8.53;73.78;102309.28;4944878;28;20088;-79
2022/12/17 23:29:41;;;;;;;19.73;14.45;;;;;;;8.67;73.01;102335.88;4944006;28;20621;-79
2022/12/17 23:32:08;;;;;;;20.65;14.55;;;;;;;8.57;73.12;102316.13;4944756;28;20177;-79
2022/12/17 23:34:34;;;;;;;16.30;12.82;;;;;;;8.50;72.50;102312.09;4943230;28;20049;-78
2022/12/17 23:37:01;;;;;;;17.48;13.30;;;;;;;8.40;72.62;102301.13;4943502;28;20612;-78
2022/12/17 23:39:28;;;;;;;15.90;12.25;;;;;;;8.59;72.13;102331.91;4943479;28;20050;-78
2022/12/17 23:41:57;;;;;;;20.38;13.00;;;;;;;8.58;72.01;102346.94;4944953;28;20054;-79
2022/12/17 23:44:25;;;;;;;15.13;12.70;;;;;;;8.56;71.70;102348.81;4943838;28;20054;-79
2022/12/17 23:46:55;;;;;;;17.50;12.27;;;;;;;8.50;71.95;102355.28;4945200;28;20054;-78
2022/12/17 23:49:22;;;;;;;14.27;12.15;;;;;;;8.43;71.52;102345.09;4943379;28;20060;-78
2022/12/17 23:51:49;;;;;;;17.90;12.40;;;;;;;8.37;71.54;102332.16;4948392;28;20149;-78
2022/12/17 23:54:16;;;;;;;17.55;13.15;;;;;;;8.11;71.78;102305.25;4952404;28;20073;-82
2022/12/17 23:56:44;;;;;;;24.45;13.30;;;;;;;8.39;71.26;102354.94;4943402;28;20468;-80
2022/12/17 23:59:11;;;;;;;15.98;12.40;;;;;;;8.48;71.04;102372.19;4961333;28;20088;-82
